Latest Weather Observations for Port Fairy

IDV60801

Issued at 1:02 pm EDT Friday 6 March 2015 (issued every 30 minutes, with the page automatically refreshed every 10 minutes)

About weather observations | Map of weather stations | Latest weather observations for VIC | Other Formats
Station Details ID: 090175 Name: PORT FAIRY AWS Lat: -38.39 Lon: 142.23 Height: 10.0 m
Data from the previous 72 hours. | See also: Recent months at Port Fairy
Date/Time
EDT
Temp
°C
App
Temp
°C
Dew
Point
Rel
Hum
%
Delta-T
°C
Wind Press
QNH
hPa
Press
MSL
hPa
Rain
since 9 am
mm
Dir
 
Spd
km/h
Gust
km/h
Spd
kts
Gust
kts
06/01:00pm 17.5 14.1 15.7 89 1.1 WSW 28 37 15 20 1013.4 1013.4 0.4
06/12:30pm 16.6 12.1 14.8 89 1.0 WSW 32 44 17 24 1013.5 1013.5 0.2
06/12:00pm 16.4 11.9 15.4 94 0.6 WSW 33 48 18 26 1013.6 1013.6 0.2
06/11:51am 16.4 12.4 15.1 92 0.8 WSW 30 48 16 26 1013.6 1013.6 0.2
06/11:30am 16.1 11.5 15.1 94 0.6 WSW 33 44 18 24 1013.5 1013.5 0.0
06/11:00am 16.0 11.4 15.2 95 0.5 WSW 33 46 18 25 1013.3 1013.3 0.0
06/10:36am 16.0 11.3 14.9 93 0.6 WSW 33 57 18 31 1013.2 1013.2 0.0
06/10:30am 16.0 10.9 14.9 93 0.6 WSW 35 44 19 24 1013.0 1013.0 0.0
06/10:00am 16.1 10.5 14.5 90 0.9 WSW 37 48 20 26 1012.9 1012.9 0.0
06/09:30am 15.9 9.9 14.4 91 0.9 WSW 39 48 21 26 1012.9 1012.9 0.0
06/09:00am 15.7 9.6 14.2 91 0.9 WSW 39 50 21 27 1012.7 1012.7 0.0
06/08:56am 15.8 9.8 14.5 92 0.7 WSW 39 57 21 31 1012.6 1012.6 0.0
06/08:30am 15.9 9.2 13.4 85 1.4 WSW 41 57 22 31 1012.4 1012.4 0.0
06/08:28am 15.8 9.5 13.6 87 1.2 WSW 39 57 21 31 1012.4 1012.4 0.0
06/08:00am 15.9 8.9 13.6 86 1.3 WSW 43 61 23 33 1012.3 1012.3 0.0
06/07:37am 16.1 8.9 13.0 82 1.7 WSW 43 61 23 33 1012.2 1012.2 0.0
06/07:30am 16.3 8.6 13.2 82 1.7 WSW 46 61 25 33 1012.1 1012.1 0.0
06/07:03am 16.1 9.9 12.8 81 1.8 WSW 37 57 20 31 1011.8 1011.8 0.0
06/07:00am 16.2 10.1 13.1 82 1.7 WSW 37 50 20 27 1011.8 1011.8 0.0
06/06:30am 16.0 8.7 12.7 81 1.8 WSW 43 57 23 31 1011.7 1011.7 0.0
06/06:00am 15.5 8.0 12.8 84 1.5 WSW 44 59 24 32 1011.9 1011.9 0.0
06/05:30am 15.6 8.8 13.1 85 1.4 W 41 61 22 33 1012.1 1012.1 0.0
06/05:15am 15.4 8.8 12.7 84 1.5 W 39 57 21 31 1012.1 1012.1 0.0
06/05:00am 16.1 9.0 12.3 78 2.1 W 41 57 22 31 1012.2 1012.2 0.0
06/04:31am 16.0 8.8 11.8 76 2.3 WSW 41 59 22 32 1012.4 1012.4 0.0
06/04:30am 16.1 9.3 12.1 77 2.2 W 39 57 21 31 1012.3 1012.3 0.0
06/04:15am 16.0 9.1 11.6 75 2.4 W 39 59 21 32 1012.4 1012.4 0.0
06/04:00am 15.9 9.3 11.3 74 2.5 W 37 56 20 30 1012.6 1012.6 0.0
06/03:30am 15.8 8.3 11.0 73 2.6 W 41 56 22 30 1012.9 1012.9 0.0
06/03:00am 15.7 8.5 10.7 72 2.7 W 39 54 21 29 1013.3 1013.3 0.0
06/02:32am 15.6 9.9 11.0 74 2.5 W 32 50 17 27 1013.7 1013.7 0.0
06/02:30am 15.5 9.7 10.9 74 2.4 W 32 48 17 26 1013.6 1013.6 0.0
06/02:00am 15.4 8.0 9.7 69 3.0 W 39 57 21 31 1014.2 1014.2 0.0
06/01:38am 15.4 9.1 11.0 75 2.3 W 35 54 19 29 1014.5 1014.5 0.0
06/01:30am 15.5 8.3 10.5 72 2.6 W 39 52 21 28 1014.4 1014.4 0.0
06/01:07am 15.7 8.2 10.9 73 2.6 W 41 59 22 32 1014.4 1014.4 0.0
06/01:00am 15.6 8.1 10.8 73 2.5 W 41 56 22 30 1014.5 1014.5 0.0
06/12:30am 15.1 8.2 9.0 67 3.1 W 35 52 19 28 1014.5 1014.5 0.0
06/12:16am 15.5 9.0 10.3 71 2.7 W 35 54 19 29 1014.6 1014.6 0.0
06/12:00am 15.4 9.1 9.7 69 3.0 W 33 50 18 27 1014.7 1014.7 0.0
 
Date/Time
EDT
Temp
°C
App
Temp
°C
Dew
Point
Rel
Hum
%
Delta-T
°C
Wind Press
QNH
hPa
Press
MSL
hPa
Rain
since 9 am
mm
Dir
 
Spd
km/h
Gust
km/h
Spd
kts
Gust
kts
05/11:43pm 15.2 9.1 9.6 69 2.9 W 32 52 17 28 1015.0 1015.0 0.0
05/11:30pm 15.0 7.7 8.9 67 3.1 W 37 50 20 27 1015.2 1015.2 0.0
05/11:00pm 15.3 9.2 10.3 72 2.6 W 33 46 18 25 1015.8 1015.8 0.0
05/10:30pm 15.1 8.9 9.2 68 3.0 W 32 46 17 25 1016.0 1016.0 0.0
05/10:21pm 14.9 8.9 8.6 66 3.2 W 30 48 16 26 1016.1 1016.1 0.0
05/10:00pm 14.9 8.3 7.9 63 3.5 W 32 50 17 27 1016.1 1016.1 0.0
05/09:30pm 14.9 8.4 8.8 67 3.1 W 33 46 18 25 1016.2 1016.2 0.0
05/09:07pm 14.9 8.7 9.5 70 2.8 W 32 50 17 27 1016.3 1016.3 0.0
05/09:00pm 15.2 8.9 9.6 69 2.9 W 33 50 18 27 1016.3 1016.3 0.0
05/08:30pm 15.1 8.8 8.8 66 3.2 W 32 46 17 25 1016.4 1016.4 0.0
05/08:00pm 14.9 8.2 7.2 60 3.8 W 32 46 17 25 1016.5 1016.5 0.0
05/07:30pm 15.2 8.9 8.9 66 3.2 W 32 48 17 26 1016.8 1016.8 0.0
05/07:00pm 15.3 8.5 7.1 58 4.0 W 32 46 17 25 1017.0 1017.0 0.0
05/06:30pm 15.6 8.5 8.1 61 3.8 WSW 35 50 19 27 1017.3 1017.3 0.0
05/06:00pm 15.7 9.2 8.0 60 3.9 W 32 46 17 25 1017.3 1017.3 0.0
05/05:30pm 16.6 10.0 7.8 56 4.4 WSW 32 43 17 23 1017.5 1017.5 0.0
05/05:00pm 15.8 9.5 8.8 63 3.6 WSW 32 39 17 21 1017.9 1017.9 0.0
05/04:30pm 17.0 10.4 7.9 55 4.6 WSW 32 43 17 23 1018.1 1018.1 0.0
05/04:00pm 17.4 11.0 6.9 50 5.2 WSW 30 39 16 21 1018.4 1018.4 0.0
05/03:30pm 16.7 9.9 6.8 52 4.9 WSW 32 41 17 22 1018.7 1018.7 0.0
05/03:00pm 16.5 9.9 7.7 56 4.4 WSW 32 41 17 22 1018.7 1018.7 0.0
05/02:30pm 16.6 10.2 8.6 59 4.1 WSW 32 43 17 23 1019.0 1019.0 0.0
05/02:00pm 16.4 10.6 7.9 57 4.3 WSW 28 39 15 21 1019.2 1019.2 0.0
05/01:30pm 17.5 11.3 7.8 53 4.9 WSW 30 41 16 22 1019.3 1019.3 0.0
05/01:00pm 17.6 11.6 7.1 50 5.2 WSW 28 39 15 21 1019.5 1019.5 0.0
05/12:30pm 17.2 11.9 8.6 57 4.4 SW 26 33 14 18 1019.7 1019.7 0.0
05/12:00pm 17.1 12.2 8.3 56 4.5 SW 24 32 13 17 1019.9 1019.9 0.0
05/11:30am 16.5 9.8 8.2 58 4.2 SW 33 43 18 23 1020.0 1020.0 0.0
05/11:00am 15.9 9.5 6.9 55 4.4 SSW 30 43 16 23 1019.7 1019.7 0.0
05/10:30am 15.5 8.8 7.5 59 4.0 SSW 32 44 17 24 1019.3 1019.3 0.0
05/10:00am 15.1 8.8 7.6 61 3.7 SSW 30 43 16 23 1019.0 1019.0 0.0
05/09:30am 14.9 7.8 8.2 64 3.4 SW 35 48 19 26 1018.8 1018.8 0.0
05/09:00am 14.6 6.7 7.9 64 3.3 SSW 39 56 21 30 1018.4 1018.4 4.0
05/08:30am 14.4 6.3 7.0 61 3.6 SW 39 56 21 30 1018.1 1018.1 4.0
05/08:00am 14.2 5.5 7.5 64 3.3 SW 43 54 23 29 1017.7 1017.7 4.0
05/07:30am 14.2 5.4 7.3 63 3.4 SW 43 57 23 31 1017.5 1017.5 4.0
05/07:00am 14.1 5.4 7.6 65 3.2 SW 43 57 23 31 1016.9 1016.9 4.0
05/06:30am 14.1 5.0 6.9 62 3.5 SW 44 59 24 32 1016.3 1016.3 4.0
05/06:00am 14.1 5.1 6.2 59 3.8 SW 43 61 23 33 1015.8 1015.8 4.0
05/05:55am 14.2 5.1 7.0 62 3.5 SW 44 63 24 34 1016.0 1016.0 4.0
05/05:30am 14.1 4.3 6.9 62 3.5 SW 48 61 26 33 1015.8 1015.8 4.0
05/05:00am 14.3 4.8 6.6 60 3.7 SW 46 61 25 33 1015.5 1015.5 4.0
05/04:52am 14.5 4.8 7.3 62 3.5 SW 48 67 26 36 1015.5 1015.5 4.0
05/04:30am 14.4 4.5 6.5 59 3.8 SW 48 65 26 35 1015.4 1015.4 4.0
05/04:00am 14.2 4.7 6.8 61 3.6 SW 46 61 25 33 1014.8 1014.8 4.0
05/03:32am 13.6 4.7 7.8 68 2.9 SW 44 67 24 36 1014.5 1014.5 4.0
05/03:30am 13.8 5.1 7.8 67 3.0 SW 43 59 23 32 1014.5 1014.5 4.0
05/03:05am 14.3 5.3 7.4 63 3.4 SW 44 65 24 35 1014.2 1014.2 4.0
05/03:00am 14.3 4.9 7.1 62 3.5 SW 46 61 25 33 1014.2 1014.2 4.0
05/02:30am 14.5 3.9 8.5 67 3.0 SW 54 72 29 39 1014.0 1014.0 4.0
05/02:00am 14.7 3.6 8.6 67 3.1 SW 57 76 31 41 1013.3 1013.3 4.0
05/01:30am 14.6 3.7 9.6 72 2.6 SW 57 76 31 41 1012.9 1012.9 4.0
05/01:04am 15.3 4.7 10.7 74 2.4 WSW 57 78 31 42 1012.2 1012.2 4.0
05/01:00am 15.4 4.8 10.6 73 2.5 WSW 57 72 31 39 1012.0 1012.0 4.0
05/12:48am 15.8 5.8 10.8 72 2.7 WSW 54 76 29 41 1011.5 1011.5 4.0
05/12:30am 15.9 6.3 12.1 78 2.1 WSW 54 69 29 37 1011.3 1011.3 4.0
05/12:05am 14.8 6.3 12.1 84 1.5 WSW 48 70 26 38 1011.2 1011.2 4.0
05/12:00am 14.9 6.6 12.6 86 1.3 WSW 48 65 26 35 1011.1 1011.1 3.8
 
Date/Time
EDT
Temp
°C
App
Temp
°C
Dew
Point
Rel
Hum
%
Delta-T
°C
Wind Press
QNH
hPa
Press
MSL
hPa
Rain
since 9 am
mm
Dir
 
Spd
km/h
Gust
km/h
Spd
kts
Gust
kts
04/11:33pm 15.0 9.2 13.9 93 0.6 W 37 63 20 34 1010.9 1010.9 3.8
04/11:30pm 15.2 9.9 14.2 94 0.6 W 35 52 19 28 1010.9 1010.9 3.8
04/11:16pm 15.1 10.9 13.6 91 0.8 W 28 52 15 28 1011.0 1011.0 3.6
04/11:00pm 14.7 10.8 13.4 92 0.7 WNW 26 44 14 24 1010.6 1010.6 3.6
04/10:31pm 15.8 12.8 13.6 87 1.2 WNW 22 59 12 32 1011.0 1011.0 2.6
04/10:30pm 16.1 13.4 13.6 85 1.4 WNW 20 43 11 23 1010.9 1010.9 2.0
04/10:00pm 16.7 14.6 12.5 76 2.3 NW 15 28 8 15 1010.4 1010.4 0.0
04/09:30pm 16.9 14.0 12.2 74 2.6 WNW 19 32 10 17 1010.5 1010.5 0.0
04/09:00pm 16.9 12.3 12.4 75 2.5 WNW 28 44 15 24 1010.3 1010.3 0.0
04/08:30pm 17.2 12.6 12.3 73 2.7 WNW 28 46 15 25 1010.4 1010.4 0.0
04/08:09pm 17.6 13.1 12.5 72 2.8 WNW 28 46 15 25 1010.5 1010.5 0.0
04/08:00pm 17.7 13.6 12.6 72 2.8 WNW 26 43 14 23 1010.5 1010.5 0.0
04/07:30pm 17.7 13.6 12.6 72 2.8 WNW 26 43 14 23 1010.7 1010.7 0.0
04/07:03pm 18.1 13.2 12.5 70 3.1 WNW 30 54 16 29 1011.1 1011.1 0.0
04/07:00pm 18.3 12.9 12.3 68 3.3 WNW 32 50 17 27 1011.0 1011.0 0.0
04/06:40pm 19.1 14.0 11.9 63 4.0 WNW 30 48 16 26 1010.7 1010.7 0.0
04/06:30pm 19.2 12.6 11.5 61 4.2 W 37 56 20 30 1010.7 1010.7 0.0
04/06:00pm 19.2 13.4 12.7 66 3.7 W 35 57 19 31 1010.7 1010.7 0.0
04/05:52pm 19.2 13.2 12.2 64 3.9 W 35 57 19 31 1010.7 1010.7 0.0
04/05:30pm 19.9 13.2 12.4 62 4.2 W 39 50 21 27 1011.1 1011.1 0.0
04/05:08pm 20.1 15.0 11.8 59 4.6 W 30 48 16 26 1011.3 1011.3 0.0
04/05:00pm 21.5 16.2 12.4 56 5.1 W 32 50 17 27 1011.3 1011.3 0.0
04/04:30pm 20.4 13.5 11.6 57 4.9 W 39 54 21 29 1011.5 1011.5 0.0
04/04:13pm 20.9 15.0 11.3 54 5.3 W 33 54 18 29 1011.7 1011.7 0.0
04/04:00pm 20.0 14.6 13.9 68 3.5 WSW 35 50 19 27 1012.0 1012.0 0.0
04/03:47pm 21.2 15.5 11.8 55 5.2 W 33 54 18 29 1012.1 1012.1 0.0
04/03:30pm 21.8 16.3 11.8 53 5.6 W 32 46 17 25 1012.2 1012.2 0.0
04/03:00pm 21.0 15.2 11.6 55 5.2 W 33 52 18 28 1012.6 1012.6 0.0
04/02:59pm 20.9 15.1 11.5 55 5.2 W 33 52 18 28 1012.6 1012.6 0.0
04/02:30pm 18.9 13.5 12.2 65 3.7 W 32 44 17 24 1013.1 1013.1 0.0
04/02:15pm 19.5 14.3 12.8 65 3.8 W 32 50 17 27 1013.2 1013.2 0.0
04/02:00pm 20.2 15.7 12.7 62 4.2 W 28 41 15 22 1013.2 1013.2 0.0
04/01:30pm 18.4 14.6 12.4 68 3.3 WNW 24 41 13 22 1013.5 1013.5 0.0
04/01:00pm 18.8 13.4 12.3 66 3.6 W 32 46 17 25 1013.8 1013.8 0.0
04/12:30pm 18.8 15.6 13.2 70 3.2 WNW 22 39 12 21 1014.2 1014.2 0.0
04/12:00pm 17.9 14.8 12.1 69 3.2 WNW 20 33 11 18 1014.5 1014.5 0.0
04/11:30am 18.0 15.6 12.5 70 3.1 NW 17 28 9 15 1014.8 1014.8 0.0
04/11:00am 16.4 14.5 12.9 80 1.9 NW 15 24 8 13 1015.0 1015.0 0.0
04/10:30am 16.7 14.6 12.3 75 2.4 NW 15 22 8 12 1015.1 1015.1 0.0
04/10:00am 15.5 13.2 11.9 79 2.0 WNW 15 26 8 14 1015.4 1015.4 0.0
04/09:30am 15.4 13.3 11.0 75 2.3 NW 13 20 7 11 1015.1 1015.1 0.0
04/09:00am 14.9 13.1 10.7 76 2.2 NW 11 19 6 10 1015.1 1015.1 0.0
04/08:30am 14.1 11.7 10.1 77 2.1 NNW 13 20 7 11 1014.7 1014.7 0.0
04/08:00am 13.8 11.8 10.2 79 1.9 NNW 11 17 6 9 1014.7 1014.7 0.0
04/07:30am 13.5 11.5 10.1 80 1.8 NW 11 22 6 12 1014.2 1014.2 0.0
04/07:00am 13.3 11.3 10.3 82 1.6 NNW 11 17 6 9 1014.2 1014.2 0.0
04/06:30am 13.0 11.0 10.2 83 1.4 NNW 11 17 6 9 1014.3 1014.3 0.0
04/06:00am 12.7 10.8 10.4 86 1.2 NW 11 15 6 8 1014.4 1014.4 0.0
04/05:30am 12.5 10.5 10.2 86 1.2 NNW 11 17 6 9 1014.4 1014.4 0.0
04/05:00am 12.4 10.5 10.5 88 1.0 NW 11 17 6 9 1014.6 1014.6 0.0
04/04:30am 12.0 10.1 10.4 90 0.8 NW 11 15 6 8 1014.8 1014.8 0.0
04/04:00am 11.6 9.5 9.9 89 0.9 NNW 11 17 6 9 1014.9 1014.9 0.0
04/03:30am 11.3 9.2 9.7 90 0.8 NNW 11 15 6 8 1015.1 1015.1 0.0
04/03:00am 11.3 9.2 9.9 91 0.7 NNW 11 17 6 9 1015.5 1015.5 0.0
04/02:30am 10.7 8.8 9.1 90 0.8 NNW 9 13 5 7 1015.8 1015.8 0.0
04/02:00am 10.8 8.9 9.1 89 0.8 NNW 9 11 5 6 1016.1 1016.1 0.0
04/01:30am 11.1 9.2 9.2 88 0.9 NNW 9 15 5 8 1016.2 1016.2 0.0
04/01:00am 11.6 10.1 9.2 85 1.2 N 7 9 4 5 1016.2 1016.2 0.0
04/12:30am 12.7 11.4 9.9 83 1.4 NNW 7 13 4 7 1016.6 1016.6 0.0
04/12:00am 13.5 12.2 9.9 79 1.9 NW 7 13 4 7 1016.9 1016.9 0.0
 
Date/Time
EDT
Temp
°C
App
Temp
°C
Dew
Point
Rel
Hum
%
Delta-T
°C
Wind Press
QNH
hPa
Press
MSL
hPa
Rain
since 9 am
mm
Dir
 
Spd
km/h
Gust
km/h
Spd
kts
Gust
kts
03/11:30pm 14.6 13.5 10.6 77 2.1 NW 7 11 4 6 1017.3 1017.3 0.0
03/11:00pm 14.8 12.9 10.6 76 2.2 W 11 17 6 9 1017.5 1017.5 0.0
03/10:30pm 15.3 13.5 10.7 74 2.4 W 11 17 6 9 1017.6 1017.6 0.0
03/10:00pm 15.7 13.9 10.9 73 2.6 W 11 19 6 10 1017.6 1017.6 0.0
03/09:30pm 15.9 13.4 10.9 72 2.7 WSW 15 19 8 10 1017.4 1017.4 0.0
03/09:00pm 16.1 13.0 10.4 69 3.0 WSW 17 22 9 12 1017.2 1017.2 0.0
03/08:30pm 16.1 13.8 10.6 70 2.9 WSW 13 19 7 10 1017.0 1017.0 0.0
03/08:00pm 16.4 13.8 10.7 69 3.0 SW 15 22 8 12 1016.7 1016.7 0.0
03/07:30pm 17.1 14.9 10.9 67 3.3 SW 13 19 7 10 1016.7 1016.7 0.0
03/07:00pm 17.5 14.1 10.4 63 3.8 SW 19 22 10 12 1016.5 1016.5 0.0
03/06:30pm 17.8 15.1 10.4 62 4.0 SW 15 20 8 11 1016.5 1016.5 0.0
03/06:00pm 18.1 15.5 10.7 62 4.0 SSW 15 20 8 11 1016.4 1016.4 0.0
03/05:30pm 18.3 15.5 11.4 64 3.8 SSW 17 22 9 12 1016.4 1016.4 0.0
03/05:00pm 18.7 15.7 11.8 64 3.8 SW 19 24 10 13 1016.5 1016.5 0.0
03/04:30pm 19.0 16.2 12.5 66 3.6 SW 19 24 10 13 1016.6 1016.6 0.0
03/04:00pm 19.2 16.4 12.5 65 3.7 SW 19 24 10 13 1016.9 1016.9 0.0
03/03:30pm 19.6 17.1 12.4 63 4.0 SW 17 20 9 11 1017.2 1017.2 0.0
03/03:00pm 19.4 17.3 12.4 64 3.9 SSW 15 22 8 12 1017.4 1017.4 0.0
03/02:30pm 19.6 17.8 12.1 62 4.2 SSW 13 15 7 8 1017.5 1017.5 0.0
03/02:00pm 19.7 17.7 12.7 64 3.9 SSW 15 20 8 11 1017.7 1017.7 0.0
03/01:30pm 19.4 17.3 12.4 64 3.9 SW 15 19 8 10 1018.0 1018.0 0.0

Other Formats:

Comma delimited format used in spreadsheet applications
http://www.bom.gov.au/fwo/IDV60801/IDV60801.94830.axf

JavaScript Object Notation format (JSON) in row-major order
http://www.bom.gov.au/fwo/IDV60801/IDV60801.94830.json